createdAt,value
2023-02-25T00:02:03.250Z,28.57
2023-02-25T00:04:32.653Z,24.47
2023-02-25T00:07:02.706Z,27.13
2023-02-25T00:09:31.871Z,29.07
2023-02-25T00:12:00.562Z,32.33
2023-02-25T00:14:29.616Z,34.30
2023-02-25T00:16:58.213Z,31.60
2023-02-25T00:19:27.522Z,28.23
2023-02-25T00:21:55.992Z,27.50
2023-02-25T00:24:25.783Z,30.20
2023-02-25T00:26:54.301Z,31.07
2023-02-25T00:29:23.197Z,36.83
2023-02-25T00:31:51.925Z,35.07
2023-02-25T00:34:20.472Z,36.90
2023-02-25T00:36:50.532Z,31.23
2023-02-25T00:39:19.297Z,37.87
2023-02-25T00:41:50.197Z,33.23
2023-02-25T00:44:19.903Z,34.87
2023-02-25T00:46:48.493Z,37.43
2023-02-25T00:49:31.479Z,33.57
2023-02-25T00:52:00.769Z,38.20
2023-02-25T00:54:29.586Z,32.43
2023-02-25T00:56:59.367Z,36.47
2023-02-25T00:59:28.026Z,51.33
2023-02-25T01:01:56.434Z,45.23
2023-02-25T01:04:25.163Z,43.97
2023-02-25T01:06:55.327Z,50.90
2023-02-25T01:09:24.256Z,47.33
2023-02-25T01:11:52.643Z,45.63
2023-02-25T01:14:24.542Z,39.87
2023-02-25T01:16:56.216Z,34.67
2023-02-25T01:19:27.114Z,29.10
2023-02-25T01:21:57.421Z,28.87
2023-02-25T01:24:27.614Z,27.30
2023-02-25T01:26:58.975Z,31.20
2023-02-25T01:29:30.971Z,26.03
2023-02-25T01:32:02.498Z,26.03
2023-02-25T01:34:32.091Z,25.73
2023-02-25T01:37:03.937Z,38.00
2023-02-25T01:39:33.562Z,39.60
2023-02-25T01:42:05.382Z,36.40
2023-02-25T01:44:38.974Z,29.87
2023-02-25T01:47:08.141Z,28.40
2023-02-25T01:49:42.630Z,25.93
2023-02-25T01:52:16.798Z,25.77
2023-02-25T01:54:48.712Z,30.10
2023-02-25T01:57:19.989Z,32.37
2023-02-25T01:59:51.470Z,27.23
2023-02-25T02:02:23.422Z,26.50
2023-02-25T02:04:54.889Z,29.27
2023-02-25T02:07:24.654Z,31.00
2023-02-25T02:09:57.246Z,38.03
2023-02-25T02:12:26.862Z,37.70
2023-02-25T02:14:58.246Z,48.70
2023-02-25T02:17:34.588Z,45.57
2023-02-25T02:20:16.057Z,38.57
2023-02-25T02:23:06.097Z,45.83
2023-02-25T02:26:05.066Z,48.07
2023-02-25T02:29:02.627Z,41.43
2023-02-25T02:31:49.180Z,43.23
2023-02-25T02:34:30.309Z,44.37
2023-02-25T02:37:11.397Z,41.13
2023-02-25T02:39:50.888Z,40.23
2023-02-25T02:42:27.603Z,37.83
2023-02-25T02:45:03.812Z,38.77
2023-02-25T02:47:37.219Z,39.67
2023-02-25T02:50:11.583Z,34.50
2023-02-25T02:52:43.991Z,38.27
2023-02-25T02:55:22.357Z,38.13
2023-02-25T02:57:56.849Z,40.17
2023-02-25T03:00:30.472Z,41.10
2023-02-25T03:03:08.360Z,38.90
2023-02-25T03:05:39.362Z,38.77
2023-02-25T03:08:11.540Z,44.20
2023-02-25T03:10:40.001Z,40.80
2023-02-25T03:13:08.500Z,38.40
2023-02-25T03:15:39.638Z,40.70
2023-02-25T03:18:19.312Z,37.57
2023-02-25T03:20:50.527Z,39.57
2023-02-25T03:23:23.474Z,38.90
2023-02-25T03:25:56.437Z,34.97
2023-02-25T03:28:31.056Z,35.43
2023-02-25T03:31:06.556Z,36.93
2023-02-25T03:33:48.579Z,37.70
2023-02-25T03:36:23.339Z,40.93
2023-02-25T03:38:56.486Z,38.17
2023-02-25T03:41:31.422Z,39.40
2023-02-25T03:44:01.373Z,39.33
2023-02-25T03:46:31.219Z,31.87
2023-02-25T03:49:02.945Z,39.83
2023-02-25T03:51:38.305Z,39.83
2023-02-25T03:54:07.638Z,34.73
2023-02-25T03:56:46.096Z,33.93
2023-02-25T03:59:14.729Z,33.63
2023-02-25T04:01:45.985Z,36.33
2023-02-25T04:04:15.788Z,39.90
2023-02-25T04:06:44.223Z,39.60
2023-02-25T04:09:12.875Z,34.73
2023-02-25T04:11:41.230Z,40.10
2023-02-25T04:14:09.894Z,33.07
2023-02-25T04:16:38.501Z,34.93
2023-02-25T04:19:07.052Z,28.87
2023-02-25T04:21:38.059Z,29.70
2023-02-25T04:24:07.851Z,29.40
2023-02-25T04:26:36.530Z,22.67
2023-02-25T04:29:05.510Z,20.50
2023-02-25T04:31:34.133Z,18.40
2023-02-25T04:34:02.540Z,16.70
2023-02-25T04:36:32.676Z,16.60
2023-02-25T04:39:04.763Z,16.83
2023-02-25T04:41:35.540Z,17.63
2023-02-25T04:44:05.311Z,16.53
2023-02-25T04:46:35.039Z,16.63
2023-02-25T04:49:04.400Z,15.10
2023-02-25T04:51:32.778Z,15.97
2023-02-25T04:54:02.532Z,14.87
2023-02-25T04:56:30.974Z,15.30
2023-02-25T04:58:59.916Z,15.07
2023-02-25T05:01:28.351Z,13.73
2023-02-25T05:03:57.292Z,14.90
2023-02-25T05:06:26.127Z,14.17
2023-02-25T05:08:54.602Z,13.30
2023-02-25T05:11:25.073Z,12.90
2023-02-25T05:13:55.686Z,12.97
2023-02-25T05:16:24.860Z,12.53
2023-02-25T05:18:54.569Z,13.27
2023-02-25T05:21:25.517Z,13.23
2023-02-25T05:23:54.566Z,12.43
2023-02-25T05:26:26.566Z,12.30
2023-02-25T05:28:57.534Z,12.13
2023-02-25T05:31:26.521Z,12.07
2023-02-25T05:33:55.492Z,11.77
2023-02-25T05:36:27.850Z,11.20
2023-02-25T05:38:59.115Z,10.93
2023-02-25T05:41:28.806Z,9.83
2023-02-25T05:43:58.324Z,10.13
2023-02-25T05:46:27.424Z,9.73
2023-02-25T05:48:56.098Z,9.53
2023-02-25T05:51:24.867Z,9.23
2023-02-25T05:53:53.962Z,9.30
2023-02-25T05:56:25.646Z,9.13
2023-02-25T05:58:55.837Z,8.60
2023-02-25T06:01:27.813Z,9.43
2023-02-25T06:03:58.690Z,9.93
2023-02-25T06:06:28.873Z,8.73
2023-02-25T06:08:57.558Z,8.97
2023-02-25T06:11:28.010Z,8.80
2023-02-25T06:13:59.459Z,9.07
2023-02-25T06:16:32.521Z,9.40
2023-02-25T06:19:02.228Z,8.70
2023-02-25T06:21:31.041Z,8.60
2023-02-25T06:23:59.540Z,9.23
2023-02-25T06:26:28.166Z,8.83
2023-02-25T06:28:58.539Z,8.30
2023-02-25T06:31:27.580Z,8.90
2023-02-25T06:33:56.233Z,9.07
2023-02-25T06:36:25.009Z,9.27
2023-02-25T06:38:53.685Z,9.40
2023-02-25T06:41:23.660Z,8.53
2023-02-25T06:43:52.851Z,10.80
2023-02-25T06:46:25.036Z,10.90
2023-02-25T06:48:54.520Z,9.43
2023-02-25T06:51:23.066Z,9.10
2023-02-25T06:53:53.122Z,9.07
2023-02-25T06:56:22.738Z,8.53
2023-02-25T06:58:52.830Z,9.10
2023-02-25T07:01:22.668Z,8.80
2023-02-25T07:03:51.245Z,8.80
2023-02-25T07:06:20.667Z,8.87
2023-02-25T07:08:49.235Z,9.47
2023-02-25T07:11:30.640Z,9.53
2023-02-25T07:13:59.230Z,9.17
2023-02-25T07:16:30.352Z,8.43
2023-02-25T07:19:02.408Z,8.67
2023-02-25T07:21:31.527Z,8.77
2023-02-25T07:24:00.230Z,9.27
2023-02-25T07:26:29.401Z,8.90
2023-02-25T07:28:59.337Z,8.63
2023-02-25T07:31:30.060Z,8.10
2023-02-25T07:34:03.511Z,8.47
2023-02-25T07:36:33.230Z,8.60
2023-02-25T07:39:04.189Z,8.60
2023-02-25T07:41:32.683Z,9.03
2023-02-25T07:44:04.694Z,8.50
2023-02-25T07:46:34.906Z,9.27
2023-02-25T07:49:03.565Z,9.00
2023-02-25T07:51:32.127Z,8.67
2023-02-25T07:54:00.692Z,8.70
2023-02-25T07:56:30.930Z,8.03
2023-02-25T07:58:59.337Z,8.70
2023-02-25T08:01:30.029Z,8.27
2023-02-25T08:04:04.205Z,9.20
2023-02-25T08:06:32.820Z,8.27
2023-02-25T08:09:01.173Z,8.40
2023-02-25T08:11:29.599Z,7.90
2023-02-25T08:13:58.018Z,7.97
2023-02-25T08:16:26.330Z,8.07
2023-02-25T08:18:55.438Z,7.90
2023-02-25T08:21:25.522Z,8.40
2023-02-25T08:23:55.272Z,8.73
2023-02-25T08:26:25.774Z,8.47
2023-02-25T08:28:54.517Z,8.63
2023-02-25T08:31:24.572Z,8.27
2023-02-25T08:33:53.966Z,7.43
2023-02-25T08:36:26.696Z,7.90
2023-02-25T08:38:57.493Z,7.77
2023-02-25T08:41:27.427Z,7.90
2023-02-25T08:43:57.659Z,7.33
2023-02-25T08:46:28.742Z,6.60
2023-02-25T08:48:57.658Z,7.77
2023-02-25T08:51:34.480Z,7.80
2023-02-25T08:54:06.852Z,7.40
2023-02-25T08:56:36.382Z,7.20
2023-02-25T08:59:06.312Z,7.10
2023-02-25T09:01:45.911Z,7.60
2023-02-25T09:04:15.315Z,6.50
2023-02-25T09:06:47.583Z,8.00
2023-02-25T09:09:16.454Z,6.83
2023-02-25T09:11:46.121Z,7.60
2023-02-25T09:14:14.819Z,7.37
2023-02-25T09:16:43.302Z,7.90
2023-02-25T09:19:12.785Z,8.03
2023-02-25T09:21:41.512Z,7.70
2023-02-25T09:24:11.981Z,7.60
2023-02-25T09:26:40.425Z,7.67
2023-02-25T09:29:09.441Z,7.80
2023-02-25T09:31:40.037Z,7.73
2023-02-25T09:34:09.981Z,8.40
2023-02-25T09:36:38.666Z,7.53
2023-02-25T09:39:10.585Z,7.60
2023-02-25T09:41:50.072Z,8.03
2023-02-25T09:44:23.500Z,7.80
2023-02-25T09:46:56.812Z,7.63
2023-02-25T09:49:33.450Z,7.83
2023-02-25T09:52:07.010Z,8.10
2023-02-25T09:54:39.580Z,7.73
2023-02-25T09:57:13.743Z,7.97
2023-02-25T09:59:42.126Z,7.33
2023-02-25T10:02:28.236Z,8.10
2023-02-25T10:05:21.712Z,8.63
2023-02-25T10:08:04.819Z,7.80
2023-02-25T10:10:42.348Z,8.20
2023-02-25T10:13:27.273Z,7.10
2023-02-25T10:16:03.913Z,7.03
2023-02-25T10:18:48.098Z,7.20
2023-02-25T10:21:30.799Z,6.93
2023-02-25T10:24:24.050Z,7.20
2023-02-25T10:26:59.534Z,6.50
2023-02-25T10:29:35.207Z,7.00
2023-02-25T10:32:17.438Z,7.00
2023-02-25T10:34:46.883Z,6.57
2023-02-25T10:37:21.575Z,7.70
2023-02-25T10:40:00.092Z,7.37
2023-02-25T10:42:29.067Z,8.00
2023-02-25T10:45:08.309Z,7.93
2023-02-25T10:47:39.187Z,7.30
2023-02-25T10:50:20.336Z,8.60
2023-02-25T10:53:01.386Z,8.40
2023-02-25T10:55:51.864Z,7.90
2023-02-25T10:58:27.988Z,8.13
2023-02-25T11:01:05.159Z,7.77
2023-02-25T11:03:39.248Z,8.50
2023-02-25T11:06:14.467Z,8.90
2023-02-25T11:08:44.237Z,7.70
2023-02-25T11:11:19.696Z,8.37
2023-02-25T11:14:00.612Z,9.10
2023-02-25T11:16:31.793Z,9.13
2023-02-25T11:19:03.045Z,8.43
2023-02-25T11:21:35.801Z,9.60
2023-02-25T11:24:11.833Z,9.50
2023-02-25T11:26:45.070Z,7.30
2023-02-25T11:29:18.997Z,7.93
2023-02-25T11:31:52.598Z,7.80
2023-02-25T11:34:23.697Z,7.53
2023-02-25T11:36:52.692Z,8.40
2023-02-25T11:39:23.997Z,8.07
2023-02-25T11:41:55.089Z,8.53
2023-02-25T11:44:30.798Z,7.93
2023-02-25T11:47:08.491Z,8.90
2023-02-25T11:49:58.285Z,8.93
2023-02-25T11:52:34.297Z,8.93
2023-02-25T11:55:15.313Z,8.70
2023-02-25T11:57:56.153Z,8.63
2023-02-25T12:00:28.773Z,8.63
2023-02-25T12:03:19.507Z,8.53
2023-02-25T12:06:01.363Z,9.17
2023-02-25T12:08:42.912Z,9.03
2023-02-25T12:11:44.395Z,8.70
2023-02-25T12:15:13.210Z,9.23
2023-02-25T12:18:26.341Z,8.30
2023-02-25T12:21:35.557Z,8.67
2023-02-25T12:24:24.876Z,8.23
2023-02-25T12:27:23.964Z,8.90
2023-02-25T12:30:22.684Z,9.33
2023-02-25T12:33:04.656Z,8.83
2023-02-25T12:35:50.853Z,9.10
2023-02-25T12:39:09.350Z,9.03
2023-02-25T12:41:45.857Z,8.67
2023-02-25T12:44:56.500Z,8.93
2023-02-25T12:47:40.491Z,8.80
2023-02-25T12:50:30.557Z,9.20
2023-02-25T12:53:24.886Z,8.87
2023-02-25T12:56:15.545Z,8.40
2023-02-25T12:59:01.415Z,8.63
2023-02-25T13:01:44.028Z,8.17
2023-02-25T13:04:39.704Z,8.23
2023-02-25T13:07:41.168Z,9.07
2023-02-25T13:10:34.586Z,8.23
2023-02-25T13:13:23.185Z,8.97
2023-02-25T13:16:02.413Z,8.60
2023-02-25T13:18:48.478Z,8.87
2023-02-25T13:21:31.069Z,8.63
2023-02-25T13:24:21.536Z,8.30
2023-02-25T13:27:16.083Z,8.07
2023-02-25T13:30:05.081Z,8.40
2023-02-25T13:32:43.467Z,8.60
2023-02-25T13:35:24.028Z,9.17
2023-02-25T13:38:03.473Z,9.30
2023-02-25T13:40:47.889Z,8.77
2023-02-25T13:43:55.191Z,8.17
2023-02-25T13:46:50.779Z,9.30
2023-02-25T13:50:12.978Z,8.90
2023-02-25T13:52:55.534Z,9.00
2023-02-25T13:56:00.983Z,9.60
2023-02-25T13:58:46.564Z,9.70
2023-02-25T14:01:30.873Z,9.43
2023-02-25T14:04:26.221Z,8.57
2023-02-25T14:07:17.897Z,9.70
2023-02-25T14:09:54.660Z,9.43
2023-02-25T14:12:44.004Z,9.53
2023-02-25T14:15:44.739Z,8.73
2023-02-25T14:18:38.977Z,9.83
2023-02-25T14:21:34.716Z,9.27
2023-02-25T14:24:08.844Z,9.43
2023-02-25T14:26:47.086Z,9.37
2023-02-25T14:29:26.745Z,9.17
2023-02-25T14:32:19.475Z,9.23
2023-02-25T14:35:03.199Z,9.57
2023-02-25T14:37:40.233Z,8.50
2023-02-25T14:40:31.088Z,9.30
2023-02-25T14:43:21.982Z,9.60
2023-02-25T14:45:55.917Z,9.40
2023-02-25T14:48:30.043Z,9.10
2023-02-25T14:51:22.729Z,9.20
2023-02-25T14:54:09.670Z,9.70
2023-02-25T14:56:53.137Z,9.73
2023-02-25T14:59:52.783Z,9.50
2023-02-25T15:02:47.848Z,9.20
2023-02-25T15:06:00.778Z,9.93
2023-02-25T15:08:58.210Z,9.10
2023-02-25T15:11:44.353Z,9.10
2023-02-25T15:14:52.017Z,9.37
2023-02-25T15:18:05.769Z,9.30
2023-02-25T15:20:39.077Z,9.37
2023-02-25T15:23:10.317Z,9.80
2023-02-25T15:25:48.610Z,9.10
2023-02-25T15:28:38.927Z,9.37
2023-02-25T15:31:34.605Z,9.23
2023-02-25T15:34:37.122Z,8.97
2023-02-25T15:37:28.217Z,9.03
2023-02-25T15:39:57.883Z,9.60
2023-02-25T15:42:49.501Z,9.47
2023-02-25T15:45:44.155Z,9.20
2023-02-25T15:48:34.392Z,9.40
2023-02-25T15:51:06.421Z,9.70
2023-02-25T15:53:48.342Z,9.10
2023-02-25T15:56:44.866Z,9.67
2023-02-25T15:59:33.203Z,10.43
2023-02-25T16:02:02.869Z,9.83
2023-02-25T16:04:48.968Z,9.80
2023-02-25T16:07:20.840Z,9.77
2023-02-25T16:09:55.827Z,9.80
2023-02-25T16:12:24.978Z,10.00
2023-02-25T16:14:54.720Z,9.90
2023-02-25T16:17:30.762Z,9.90
2023-02-25T16:20:06.961Z,9.97
2023-02-25T16:22:36.808Z,10.40
2023-02-25T16:25:06.298Z,10.23
2023-02-25T16:27:50.120Z,10.67
2023-02-25T16:30:23.771Z,9.63
2023-02-25T16:33:01.750Z,9.20
2023-02-25T16:35:35.734Z,9.60
2023-02-25T16:38:10.903Z,9.60
2023-02-25T16:40:41.626Z,9.97
2023-02-25T16:43:15.521Z,9.43
2023-02-25T16:45:54.499Z,8.90
2023-02-25T16:48:29.776Z,9.03
2023-02-25T16:50:58.783Z,9.70
2023-02-25T16:53:28.506Z,9.93
2023-02-25T16:56:00.316Z,10.20
2023-02-25T16:58:31.205Z,9.63
2023-02-25T17:01:03.896Z,9.27
2023-02-25T17:03:47.492Z,9.53
2023-02-25T17:06:18.580Z,9.40
2023-02-25T17:08:48.906Z,10.20
2023-02-25T17:11:20.127Z,10.43
2023-02-25T17:13:49.623Z,10.10
2023-02-25T17:16:23.649Z,9.40
2023-02-25T17:18:57.196Z,10.10
2023-02-25T17:21:29.364Z,10.47
2023-02-25T17:24:00.441Z,10.50
2023-02-25T17:26:30.307Z,9.80
2023-02-25T17:29:01.656Z,9.70
2023-02-25T17:31:31.513Z,10.10
2023-02-25T17:34:03.630Z,10.13
2023-02-25T17:36:35.299Z,9.90
2023-02-25T17:39:06.176Z,9.70
2023-02-25T17:41:35.754Z,9.37
2023-02-25T17:44:04.417Z,9.63
2023-02-25T17:46:37.856Z,9.87
2023-02-25T17:49:21.322Z,10.27
2023-02-25T17:51:55.622Z,10.40
2023-02-25T17:54:26.805Z,8.97
2023-02-25T17:56:58.756Z,9.33
2023-02-25T17:59:38.864Z,10.40
2023-02-25T18:02:29.978Z,9.90
2023-02-25T18:05:22.430Z,10.40
2023-02-25T18:08:18.780Z,9.97
2023-02-25T18:10:49.679Z,9.97
2023-02-25T18:13:29.187Z,9.97
2023-02-25T18:16:34.259Z,9.73
2023-02-25T18:19:02.784Z,10.47
2023-02-25T18:21:35.384Z,9.83
2023-02-25T18:24:03.810Z,10.13
2023-02-25T18:26:32.361Z,9.83
2023-02-25T18:29:00.760Z,10.33
2023-02-25T18:31:29.286Z,10.80
2023-02-25T18:33:57.784Z,11.10
2023-02-25T18:36:29.261Z,11.40
2023-02-25T18:39:04.549Z,11.37
2023-02-25T18:41:33.695Z,10.87
2023-02-25T18:44:02.447Z,10.70
2023-02-25T18:46:30.889Z,10.90
2023-02-25T18:48:59.282Z,10.43
2023-02-25T18:51:27.743Z,10.60
2023-02-25T18:53:56.121Z,9.50
2023-02-25T18:56:26.350Z,10.10
2023-02-25T18:58:57.766Z,10.27
2023-02-25T19:01:32.023Z,10.90
2023-02-25T19:04:00.576Z,10.43
2023-02-25T19:06:32.125Z,11.00
2023-02-25T19:09:00.831Z,11.07
2023-02-25T19:11:36.072Z,10.67
2023-02-25T19:14:05.885Z,10.83
2023-02-25T19:16:34.346Z,11.73
2023-02-25T19:19:02.725Z,11.20
2023-02-25T19:21:31.959Z,11.27
2023-02-25T19:24:00.274Z,11.70
2023-02-25T19:26:30.728Z,10.97
2023-02-25T19:28:59.289Z,11.77
2023-02-25T19:31:27.752Z,11.97
2023-02-25T19:33:56.616Z,12.30
2023-02-25T19:36:25.413Z,12.43
2023-02-25T19:38:54.012Z,11.97
2023-02-25T19:41:22.511Z,12.70
2023-02-25T19:43:52.503Z,11.60
2023-02-25T19:46:20.925Z,12.80
2023-02-25T19:48:49.244Z,12.23
2023-02-25T19:51:17.698Z,11.83
2023-02-25T19:53:46.372Z,11.80
2023-02-25T19:56:14.793Z,11.50
2023-02-25T19:58:43.168Z,12.00
2023-02-25T20:01:12.955Z,11.90
2023-02-25T20:03:41.706Z,12.40
2023-02-25T20:06:13.503Z,11.47
2023-02-25T20:08:41.983Z,12.30
2023-02-25T20:11:10.796Z,11.27
2023-02-25T20:13:39.500Z,11.43
2023-02-25T20:16:09.421Z,12.00
2023-02-25T20:18:39.355Z,12.30
2023-02-25T20:21:08.021Z,12.07
2023-02-25T20:23:38.898Z,11.27
2023-02-25T20:26:10.378Z,11.60
2023-02-25T20:28:38.912Z,11.90
2023-02-25T20:31:09.477Z,10.93
2023-02-25T20:33:40.510Z,10.83
2023-02-25T20:36:20.511Z,11.90
2023-02-25T20:39:04.858Z,11.33
2023-02-25T20:41:33.296Z,12.30
2023-02-25T20:44:01.811Z,12.00
2023-02-25T20:46:30.451Z,11.97
2023-02-25T20:49:00.622Z,11.73
2023-02-25T20:51:29.593Z,11.73
2023-02-25T20:53:58.186Z,11.93
2023-02-25T20:56:30.480Z,11.53
2023-02-25T20:58:59.193Z,11.00
2023-02-25T21:01:27.516Z,10.50
2023-02-25T21:03:55.906Z,11.50
2023-02-25T21:06:27.303Z,11.87
2023-02-25T21:08:56.257Z,11.10
2023-02-25T21:11:25.482Z,10.53
2023-02-25T21:13:54.524Z,11.40
2023-02-25T21:16:24.473Z,11.90
2023-02-25T21:18:53.574Z,11.67
2023-02-25T21:21:23.218Z,11.63
2023-02-25T21:23:52.901Z,11.53
2023-02-25T21:26:21.320Z,11.37
2023-02-25T21:28:50.019Z,11.70
2023-02-25T21:31:18.580Z,11.73
2023-02-25T21:33:47.394Z,11.20
2023-02-25T21:36:15.885Z,11.70
2023-02-25T21:38:44.389Z,12.00
2023-02-25T21:41:15.861Z,11.63
2023-02-25T21:43:44.882Z,11.10
2023-02-25T21:46:17.852Z,11.27
2023-02-25T21:48:47.536Z,12.17
2023-02-25T21:51:18.116Z,12.53
2023-02-25T21:53:46.753Z,11.40
2023-02-25T21:56:18.210Z,12.27
2023-02-25T21:58:47.193Z,11.93
2023-02-25T22:01:17.257Z,11.90
2023-02-25T22:03:46.588Z,11.57
2023-02-25T22:06:15.963Z,11.27
2023-02-25T22:08:46.055Z,11.73
2023-02-25T22:11:17.353Z,11.80
2023-02-25T22:13:45.840Z,12.97
2023-02-25T22:16:16.279Z,11.60
2023-02-25T22:18:44.737Z,11.77
2023-02-25T22:21:14.358Z,12.23
2023-02-25T22:23:44.452Z,12.87
2023-02-25T22:26:15.030Z,11.30
2023-02-25T22:28:45.938Z,12.20
2023-02-25T22:31:16.486Z,11.93
2023-02-25T22:33:45.986Z,11.03
2023-02-25T22:36:15.316Z,11.20
2023-02-25T22:38:44.750Z,11.67
2023-02-25T22:41:15.492Z,11.37
2023-02-25T22:43:45.669Z,11.20
2023-02-25T22:46:15.829Z,11.37
2023-02-25T22:48:47.122Z,11.70
2023-02-25T22:51:20.478Z,11.40
2023-02-25T22:53:48.892Z,11.23
2023-02-25T22:56:17.489Z,11.47
2023-02-25T22:58:47.202Z,11.83
2023-02-25T23:01:19.403Z,12.17
2023-02-25T23:03:48.625Z,12.23
2023-02-25T23:06:20.297Z,13.30
2023-02-25T23:08:49.693Z,12.77
2023-02-25T23:11:19.914Z,12.23
2023-02-25T23:13:52.563Z,11.77
2023-02-25T23:16:24.001Z,11.90
2023-02-25T23:18:53.229Z,11.33
2023-02-25T23:21:22.133Z,11.93
2023-02-25T23:23:53.258Z,10.70
2023-02-25T23:26:24.696Z,11.73
2023-02-25T23:28:58.016Z,11.57
2023-02-25T23:31:28.956Z,11.93
2023-02-25T23:33:58.539Z,11.40
2023-02-25T23:36:28.113Z,12.33
2023-02-25T23:38:57.930Z,12.90
2023-02-25T23:41:27.613Z,12.27
2023-02-25T23:44:00.574Z,12.10
2023-02-25T23:46:32.113Z,11.77
2023-02-25T23:49:02.790Z,12.57
2023-02-25T23:51:31.916Z,11.80
2023-02-25T23:54:02.884Z,12.00
2023-02-25T23:56:32.704Z,11.00
2023-02-25T23:59:02.939Z,10.97
